createdAt,value
2022-12-06T00:01:46.050Z,88.79
2022-12-06T00:04:15.795Z,88.98
2022-12-06T00:06:45.435Z,88.89
2022-12-06T00:09:18.785Z,89.18
2022-12-06T00:11:48.459Z,88.35
2022-12-06T00:14:17.121Z,87.56
2022-12-06T00:16:45.504Z,87.94
2022-12-06T00:19:15.787Z,89.19
2022-12-06T00:21:44.354Z,87.58
2022-12-06T00:24:14.268Z,88.89
2022-12-06T00:26:44.020Z,89.07
2022-12-06T00:29:15.695Z,89.43
2022-12-06T00:31:43.688Z,89.65
2022-12-06T00:34:11.720Z,89.05
2022-12-06T00:36:41.692Z,86.83
2022-12-06T00:39:11.464Z,89.68
2022-12-06T00:41:39.819Z,89.81
2022-12-06T00:44:07.926Z,89.22
2022-12-06T00:46:38.236Z,88.33
2022-12-06T00:49:07.791Z,86.31
2022-12-06T00:51:36.892Z,87.54
2022-12-06T00:54:05.437Z,85.81
2022-12-06T00:56:35.732Z,85.56
2022-12-06T00:59:04.190Z,87.28
2022-12-06T01:01:33.665Z,87.43
2022-12-06T01:04:05.641Z,86.75
2022-12-06T01:06:36.253Z,87.95
2022-12-06T01:09:07.098Z,88.42
2022-12-06T01:11:35.577Z,87.78
2022-12-06T01:14:03.412Z,86.56
2022-12-06T01:16:32.264Z,86.32
2022-12-06T01:19:03.359Z,86.86
2022-12-06T01:21:31.850Z,86.33
2022-12-06T01:23:59.927Z,85.16
2022-12-06T01:26:29.551Z,86.20
2022-12-06T01:28:58.967Z,86.18
2022-12-06T01:31:32.137Z,83.97
2022-12-06T01:34:03.101Z,85.84
2022-12-06T01:36:31.199Z,84.05
2022-12-06T01:39:00.992Z,86.96
2022-12-06T01:41:29.177Z,85.89
2022-12-06T01:43:57.607Z,87.54
2022-12-06T01:46:32.762Z,87.50
2022-12-06T01:49:10.838Z,87.01
2022-12-06T01:51:39.996Z,85.88
2022-12-06T01:54:12.253Z,86.30
2022-12-06T01:56:41.193Z,87.52
2022-12-06T01:59:10.556Z,84.96
2022-12-06T02:01:40.354Z,86.64
2022-12-06T02:04:10.300Z,87.26
2022-12-06T02:06:40.035Z,86.45
2022-12-06T02:09:10.072Z,88.41
2022-12-06T02:11:38.239Z,89.22
2022-12-06T02:14:10.729Z,88.47
2022-12-06T02:16:53.152Z,88.23
2022-12-06T02:19:48.212Z,89.19
2022-12-06T02:22:22.451Z,87.77
2022-12-06T02:25:11.652Z,87.88
2022-12-06T02:28:00.257Z,88.01
2022-12-06T02:30:39.975Z,86.44
2022-12-06T02:33:12.371Z,86.37
2022-12-06T02:35:43.337Z,86.14
2022-12-06T02:38:16.241Z,88.03
2022-12-06T02:40:51.400Z,87.03
2022-12-06T02:43:23.155Z,88.95
2022-12-06T02:45:56.068Z,87.75
2022-12-06T02:48:25.659Z,87.49
2022-12-06T02:50:57.457Z,88.01
2022-12-06T02:53:28.699Z,86.76
2022-12-06T02:55:57.848Z,86.93
2022-12-06T02:58:25.636Z,87.94
2022-12-06T03:00:57.824Z,85.56
2022-12-06T03:03:53.112Z,86.96
2022-12-06T03:06:46.544Z,87.60
2022-12-06T03:09:33.724Z,87.57
2022-12-06T03:12:07.751Z,86.26
2022-12-06T03:14:42.884Z,85.68
2022-12-06T03:17:17.861Z,87.16
2022-12-06T03:19:52.538Z,87.79
2022-12-06T03:22:24.347Z,85.74
2022-12-06T03:24:53.274Z,86.57
2022-12-06T03:27:24.431Z,88.19
2022-12-06T03:29:55.389Z,89.49
2022-12-06T03:32:29.156Z,88.91
2022-12-06T03:35:01.005Z,88.62
2022-12-06T03:37:31.873Z,90.24
2022-12-06T03:40:05.349Z,86.77
2022-12-06T03:42:33.722Z,87.89
2022-12-06T03:45:02.425Z,86.51
2022-12-06T03:47:37.603Z,88.78
2022-12-06T03:50:10.392Z,89.70
2022-12-06T03:52:40.078Z,87.53
2022-12-06T03:55:08.996Z,86.37
2022-12-06T03:57:36.941Z,86.94
2022-12-06T04:00:07.153Z,87.51
2022-12-06T04:02:36.448Z,88.13
2022-12-06T04:05:04.988Z,86.78
2022-12-06T04:07:32.712Z,87.11
2022-12-06T04:10:03.799Z,87.90
2022-12-06T04:12:50.967Z,87.75
2022-12-06T04:15:19.741Z,87.59
2022-12-06T04:18:06.387Z,88.01
2022-12-06T04:20:54.650Z,88.56
2022-12-06T04:23:21.840Z,88.85
2022-12-06T04:25:49.544Z,90.82
2022-12-06T04:28:34.941Z,92.14
2022-12-06T04:31:22.537Z,91.83
2022-12-06T04:34:10.041Z,91.63
2022-12-06T04:36:55.844Z,90.16
2022-12-06T04:39:23.849Z,93.46
2022-12-06T04:42:09.396Z,93.90
2022-12-06T04:44:37.259Z,92.99
2022-12-06T04:47:05.926Z,90.57
2022-12-06T04:49:35.649Z,94.08
2022-12-06T04:52:03.604Z,92.39
2022-12-06T04:54:31.501Z,92.51
2022-12-06T04:57:00.254Z,93.49
2022-12-06T04:59:28.800Z,91.45
2022-12-06T05:01:57.679Z,93.05
2022-12-06T05:04:25.449Z,92.14
2022-12-06T05:06:54.682Z,91.81
2022-12-06T05:09:22.579Z,90.90
2022-12-06T05:11:50.308Z,91.34
2022-12-06T05:14:18.069Z,93.13
2022-12-06T05:16:45.826Z,93.35
2022-12-06T05:19:14.807Z,93.40
2022-12-06T05:21:42.872Z,91.18
2022-12-06T05:24:12.154Z,93.67
2022-12-06T05:26:39.909Z,93.28
2022-12-06T05:29:07.639Z,92.00
2022-12-06T05:31:35.494Z,91.11
2022-12-06T05:34:03.296Z,90.84
2022-12-06T05:36:31.035Z,90.79
2022-12-06T05:38:59.094Z,93.91
2022-12-06T05:41:28.240Z,91.61
2022-12-06T05:43:56.061Z,92.39
2022-12-06T05:46:23.855Z,93.22
2022-12-06T05:48:51.564Z,91.61
2022-12-06T05:51:19.355Z,91.59
2022-12-06T05:53:47.112Z,90.11
2022-12-06T05:56:14.868Z,91.12
2022-12-06T05:58:44.014Z,91.71
2022-12-06T06:01:11.821Z,91.51
2022-12-06T06:03:44.015Z,92.89
2022-12-06T06:06:14.909Z,94.80
2022-12-06T06:08:42.876Z,91.63
2022-12-06T06:11:10.568Z,91.26
2022-12-06T06:13:38.445Z,91.11
2022-12-06T06:16:08.196Z,92.17
2022-12-06T06:18:36.048Z,92.76
2022-12-06T06:21:03.925Z,91.07
2022-12-06T06:23:32.137Z,92.89
2022-12-06T06:26:00.010Z,91.38
2022-12-06T06:28:27.826Z,92.83
2022-12-06T06:30:55.573Z,92.55
2022-12-06T06:33:24.650Z,93.72
2022-12-06T06:35:52.429Z,92.02
2022-12-06T06:38:20.168Z,93.77
2022-12-06T06:40:47.927Z,92.52
2022-12-06T06:43:21.512Z,92.01
2022-12-06T06:45:53.283Z,91.76
2022-12-06T06:48:21.903Z,90.74
2022-12-06T06:50:56.719Z,91.10
2022-12-06T06:53:26.368Z,92.69
2022-12-06T06:55:54.935Z,91.66
2022-12-06T06:58:22.698Z,90.25
2022-12-06T07:00:55.048Z,90.92
2022-12-06T07:03:23.549Z,90.63
2022-12-06T07:05:57.204Z,90.81
2022-12-06T07:08:25.739Z,89.99
2022-12-06T07:10:54.260Z,90.03
2022-12-06T07:13:24.223Z,90.09
2022-12-06T07:15:52.911Z,89.36
2022-12-06T07:18:21.279Z,90.08
2022-12-06T07:20:49.927Z,89.75
2022-12-06T07:23:18.978Z,88.52
2022-12-06T07:25:46.788Z,87.88
2022-12-06T07:28:14.578Z,89.28
2022-12-06T07:30:42.384Z,88.82
2022-12-06T07:33:10.073Z,88.28
2022-12-06T07:36:10.335Z,89.53
2022-12-06T07:38:26.928Z,90.70
2022-12-06T07:41:04.386Z,89.54
2022-12-06T07:43:52.335Z,87.96
2022-12-06T07:46:20.225Z,89.52
2022-12-06T07:48:48.013Z,88.32
2022-12-06T07:51:15.699Z,88.09
2022-12-06T07:53:44.795Z,88.86
2022-12-06T07:56:12.829Z,89.46
2022-12-06T07:58:40.518Z,89.63
2022-12-06T08:01:08.341Z,89.29
2022-12-06T08:03:36.199Z,89.24
2022-12-06T08:06:04.233Z,90.04
2022-12-06T08:08:32.870Z,88.72
2022-12-06T08:11:02.672Z,87.78
2022-12-06T08:13:30.568Z,87.57
2022-12-06T08:15:58.376Z,87.39
2022-12-06T08:18:26.575Z,86.95
2022-12-06T08:20:54.333Z,86.78
2022-12-06T08:23:22.097Z,88.84
2022-12-06T08:25:57.848Z,87.84
2022-12-06T08:28:27.217Z,86.69
2022-12-06T08:30:58.326Z,86.96
2022-12-06T08:33:30.514Z,87.15
2022-12-06T08:35:58.266Z,84.78
2022-12-06T08:38:26.178Z,87.65
2022-12-06T08:40:53.861Z,85.24
2022-12-06T08:43:21.627Z,86.21
2022-12-06T08:45:53.344Z,86.50
2022-12-06T08:48:21.369Z,85.71
2022-12-06T08:50:49.170Z,85.83
2022-12-06T08:53:16.955Z,86.29
2022-12-06T08:56:00.358Z,86.64
2022-12-06T08:58:30.431Z,85.27
2022-12-06T09:00:59.734Z,84.99
2022-12-06T09:03:27.733Z,85.80
2022-12-06T09:05:55.534Z,85.18
2022-12-06T09:08:23.364Z,84.58
2022-12-06T09:10:51.189Z,85.05
2022-12-06T09:13:19.028Z,84.05
2022-12-06T09:15:46.771Z,84.56
2022-12-06T09:18:16.024Z,84.98
2022-12-06T09:20:43.982Z,86.92
2022-12-06T09:23:11.763Z,86.81
2022-12-06T09:25:41.700Z,86.82
2022-12-06T09:28:09.764Z,85.97
2022-12-06T09:30:37.496Z,86.26
2022-12-06T09:33:05.270Z,85.33
2022-12-06T09:35:35.174Z,82.92
2022-12-06T09:38:03.925Z,84.20
2022-12-06T09:40:38.583Z,83.05
2022-12-06T09:43:20.040Z,84.13
2022-12-06T09:46:03.329Z,83.17
2022-12-06T09:48:56.020Z,83.84
2022-12-06T09:51:37.575Z,84.91
2022-12-06T09:54:20.109Z,83.23
2022-12-06T09:56:52.885Z,82.23
2022-12-06T09:59:31.773Z,83.38
2022-12-06T10:02:19.072Z,83.88
2022-12-06T10:05:11.424Z,84.14
2022-12-06T10:07:48.762Z,84.40
2022-12-06T10:10:26.106Z,85.50
2022-12-06T10:13:04.479Z,85.39
2022-12-06T10:15:47.723Z,85.12
2022-12-06T10:18:32.246Z,84.35
2022-12-06T10:21:10.743Z,84.30
2022-12-06T10:24:01.799Z,84.63
2022-12-06T10:26:36.324Z,84.51
2022-12-06T10:29:16.403Z,82.24
2022-12-06T10:31:56.122Z,82.95
2022-12-06T10:34:32.288Z,82.10
2022-12-06T10:37:08.307Z,82.61
2022-12-06T10:39:51.874Z,82.21
2022-12-06T10:42:31.779Z,81.34
2022-12-06T10:45:25.111Z,80.66
2022-12-06T10:47:55.189Z,80.81
2022-12-06T10:50:27.579Z,80.29
2022-12-06T10:53:02.254Z,80.00
2022-12-06T10:55:37.386Z,78.29
2022-12-06T10:58:14.235Z,78.57
2022-12-06T11:00:51.736Z,77.61
2022-12-06T11:03:25.240Z,78.41
2022-12-06T11:05:57.349Z,77.75
2022-12-06T11:08:29.801Z,78.53
2022-12-06T11:11:01.185Z,76.72
2022-12-06T11:13:38.288Z,78.45
2022-12-06T11:16:15.015Z,77.65
2022-12-06T11:18:43.616Z,77.18
2022-12-06T11:21:23.099Z,77.16
2022-12-06T11:23:58.074Z,76.82
2022-12-06T11:26:35.177Z,77.84
2022-12-06T11:29:06.314Z,79.33
2022-12-06T11:31:38.981Z,78.59
2022-12-06T11:34:13.708Z,78.13
2022-12-06T11:36:41.708Z,77.39
2022-12-06T11:39:11.972Z,77.89
2022-12-06T11:41:42.592Z,80.90
2022-12-06T11:44:18.419Z,79.82
2022-12-06T11:46:46.581Z,80.25
2022-12-06T11:49:18.457Z,81.01
2022-12-06T11:51:46.212Z,78.26
2022-12-06T11:54:22.276Z,79.74
2022-12-06T11:56:51.959Z,77.64
2022-12-06T11:59:25.968Z,77.76
2022-12-06T12:01:55.904Z,77.62
2022-12-06T12:04:45.819Z,77.19
2022-12-06T12:07:17.854Z,77.19
2022-12-06T12:09:50.823Z,76.74
2022-12-06T12:12:22.550Z,76.01
2022-12-06T12:14:57.343Z,76.93
2022-12-06T12:17:30.099Z,76.98
2022-12-06T12:20:02.000Z,75.57
2022-12-06T12:22:36.096Z,74.88
2022-12-06T12:25:18.858Z,75.88
2022-12-06T12:27:50.352Z,74.45
2022-12-06T12:30:36.572Z,74.56
2022-12-06T12:33:16.627Z,74.61
2022-12-06T12:35:46.283Z,73.20
2022-12-06T12:38:18.187Z,73.31
2022-12-06T12:40:48.661Z,73.26
2022-12-06T12:43:22.153Z,72.37
2022-12-06T12:46:20.295Z,73.59
2022-12-06T12:48:50.613Z,74.12
2022-12-06T12:51:34.781Z,73.87
2022-12-06T12:54:04.884Z,74.37
2022-12-06T12:56:34.934Z,74.19
2022-12-06T12:59:14.359Z,75.03
2022-12-06T13:01:46.224Z,73.78
2022-12-06T13:04:21.331Z,73.12
2022-12-06T13:06:52.317Z,74.18
2022-12-06T13:09:27.759Z,73.19
2022-12-06T13:11:59.975Z,71.93
2022-12-06T13:14:30.685Z,71.85
2022-12-06T13:17:02.206Z,71.76
2022-12-06T13:19:35.260Z,70.43
2022-12-06T13:22:05.851Z,72.43
2022-12-06T13:24:34.915Z,72.40
2022-12-06T13:27:06.374Z,71.29
2022-12-06T13:29:39.965Z,73.03
2022-12-06T13:32:15.451Z,70.98
2022-12-06T13:34:49.051Z,70.95
2022-12-06T13:37:37.184Z,71.10
2022-12-06T13:40:06.613Z,70.91
2022-12-06T13:42:46.594Z,70.11
2022-12-06T13:45:45.462Z,71.72
2022-12-06T13:48:39.679Z,70.83
2022-12-06T13:51:11.895Z,69.81
2022-12-06T13:54:12.906Z,69.64
2022-12-06T13:56:42.287Z,70.82
2022-12-06T13:59:42.366Z,71.56
2022-12-06T14:02:52.997Z,71.17
2022-12-06T14:06:12.185Z,69.97
2022-12-06T14:08:45.077Z,71.52
2022-12-06T14:11:25.612Z,72.88
2022-12-06T14:14:08.845Z,72.04
2022-12-06T14:16:40.436Z,72.37
2022-12-06T14:19:15.757Z,72.30
2022-12-06T14:21:53.161Z,71.56
2022-12-06T14:24:28.879Z,71.89
2022-12-06T14:27:05.003Z,71.49
2022-12-06T14:29:33.115Z,72.83
2022-12-06T14:32:01.135Z,72.82
2022-12-06T14:34:31.453Z,72.41
2022-12-06T14:37:03.318Z,73.24
2022-12-06T14:39:32.878Z,73.59
2022-12-06T14:42:20.026Z,72.75
2022-12-06T14:44:50.223Z,71.95
2022-12-06T14:47:20.394Z,70.78
2022-12-06T14:50:10.352Z,72.30
2022-12-06T14:52:57.741Z,73.22
2022-12-06T14:55:26.145Z,73.53
2022-12-06T14:57:58.542Z,72.51
2022-12-06T15:00:30.535Z,73.37
2022-12-06T15:03:24.168Z,73.21
2022-12-06T15:06:10.137Z,73.02
2022-12-06T15:08:40.260Z,73.86
2022-12-06T15:11:43.307Z,74.79
2022-12-06T15:14:19.045Z,75.11
2022-12-06T15:16:59.415Z,75.20
2022-12-06T15:19:27.669Z,75.35
2022-12-06T15:21:56.004Z,74.71
2022-12-06T15:24:26.626Z,76.41
2022-12-06T15:26:55.091Z,74.50
2022-12-06T15:29:23.282Z,75.99
2022-12-06T15:31:55.705Z,75.10
2022-12-06T15:34:27.579Z,76.81
2022-12-06T15:37:22.393Z,74.90
2022-12-06T15:39:45.491Z,74.92
2022-12-06T15:42:19.743Z,75.20
2022-12-06T15:45:01.036Z,76.55
2022-12-06T15:47:29.335Z,76.92
2022-12-06T15:49:58.487Z,75.70
2022-12-06T15:52:27.431Z,74.74
2022-12-06T15:54:57.646Z,74.80
2022-12-06T15:57:25.404Z,75.84
2022-12-06T15:59:53.247Z,76.82
2022-12-06T16:02:21.103Z,78.27
2022-12-06T16:04:50.926Z,78.57
2022-12-06T16:07:19.787Z,78.80
2022-12-06T16:09:48.479Z,78.38
2022-12-06T16:12:18.086Z,80.83
2022-12-06T16:14:45.900Z,80.11
2022-12-06T16:17:13.751Z,80.79
2022-12-06T16:19:58.793Z,81.96
2022-12-06T16:22:40.495Z,80.75
2022-12-06T16:25:08.946Z,78.98
2022-12-06T16:27:38.113Z,78.38
2022-12-06T16:30:07.304Z,81.03
2022-12-06T16:32:35.098Z,81.39
2022-12-06T16:35:03.143Z,82.66
2022-12-06T16:37:31.102Z,81.37
2022-12-06T16:39:58.896Z,79.39
2022-12-06T16:42:26.608Z,79.87
2022-12-06T16:44:55.727Z,81.76
2022-12-06T16:49:50.228Z,82.31
2022-12-06T16:52:18.531Z,83.03
2022-12-06T16:54:46.455Z,83.42
2022-12-06T16:57:15.335Z,82.79
2022-12-06T16:59:43.392Z,83.29
2022-12-06T17:02:25.655Z,83.86
2022-12-06T17:04:53.578Z,82.62
2022-12-06T17:07:21.375Z,82.84
2022-12-06T17:09:49.160Z,81.71
2022-12-06T17:12:17.085Z,81.94
2022-12-06T17:14:45.019Z,81.93
2022-12-06T17:17:14.500Z,80.82
2022-12-06T17:19:43.790Z,80.83
2022-12-06T17:22:12.880Z,80.41
2022-12-06T17:24:40.820Z,78.74
2022-12-06T17:27:09.469Z,80.14
2022-12-06T17:29:37.727Z,80.45
2022-12-06T17:32:06.039Z,80.28
2022-12-06T17:34:34.100Z,81.07
2022-12-06T17:37:03.238Z,80.94
2022-12-06T17:39:31.069Z,80.00
2022-12-06T17:42:16.189Z,81.13
2022-12-06T17:44:44.105Z,81.25
2022-12-06T17:47:12.296Z,80.50
2022-12-06T17:49:40.061Z,80.71
2022-12-06T17:52:09.247Z,80.43
2022-12-06T17:54:37.016Z,80.53
2022-12-06T17:57:04.939Z,80.27
2022-12-06T17:59:34.544Z,81.29
2022-12-06T18:02:18.639Z,80.50
2022-12-06T18:04:47.734Z,80.66
2022-12-06T18:07:18.209Z,79.98
2022-12-06T18:09:46.012Z,80.51
2022-12-06T18:12:15.616Z,81.07
2022-12-06T18:14:43.429Z,81.24
2022-12-06T18:17:11.155Z,79.41
2022-12-06T18:19:40.357Z,78.69
2022-12-06T18:22:08.351Z,80.78
2022-12-06T18:24:37.699Z,80.83
2022-12-06T18:27:05.887Z,81.11
2022-12-06T18:29:34.253Z,80.87
2022-12-06T18:32:02.275Z,81.11
2022-12-06T18:34:30.433Z,80.57
2022-12-06T18:36:58.206Z,81.41
2022-12-06T18:39:26.067Z,80.15
2022-12-06T18:41:55.983Z,79.93
2022-12-06T18:44:24.707Z,79.86
2022-12-06T18:46:52.607Z,80.17
2022-12-06T18:49:20.456Z,80.36
2022-12-06T18:51:48.212Z,79.62
2022-12-06T18:54:15.993Z,79.67
2022-12-06T18:56:43.894Z,79.26
2022-12-06T18:59:13.340Z,78.32
2022-12-06T19:01:42.289Z,79.49
2022-12-06T19:04:14.672Z,78.66
2022-12-06T19:06:44.313Z,79.81
2022-12-06T19:09:14.220Z,79.04
2022-12-06T19:11:44.443Z,78.45
2022-12-06T19:14:14.312Z,79.74
2022-12-06T19:16:43.919Z,79.73
2022-12-06T19:19:16.585Z,80.79
2022-12-06T19:21:45.577Z,81.75
2022-12-06T19:24:15.891Z,80.26
2022-12-06T19:26:44.129Z,80.14
2022-12-06T19:29:13.643Z,80.19
2022-12-06T19:31:41.857Z,80.49
2022-12-06T19:34:15.352Z,79.48
2022-12-06T19:36:43.227Z,79.17
2022-12-06T19:39:12.424Z,79.25
2022-12-06T19:41:54.490Z,79.24
2022-12-06T19:44:23.656Z,79.61
2022-12-06T19:46:52.463Z,79.06
2022-12-06T19:49:22.872Z,80.50
2022-12-06T19:51:51.309Z,80.50
2022-12-06T19:54:22.197Z,79.96
2022-12-06T19:56:50.573Z,81.41
2022-12-06T19:59:18.584Z,81.05
2022-12-06T20:01:50.001Z,80.31
2022-12-06T20:04:20.292Z,81.18
2022-12-06T20:06:48.331Z,81.12
2022-12-06T20:09:17.052Z,80.05
2022-12-06T20:12:04.487Z,81.08
2022-12-06T20:14:37.916Z,82.39
2022-12-06T20:17:09.875Z,81.88
2022-12-06T20:19:38.148Z,82.35
2022-12-06T20:22:06.212Z,82.94
2022-12-06T20:24:34.272Z,82.86
2022-12-06T20:27:02.656Z,82.91
2022-12-06T20:29:32.516Z,83.21
2022-12-06T20:32:01.437Z,82.00
2022-12-06T20:34:34.031Z,83.94
2022-12-06T20:37:04.178Z,81.31
2022-12-06T20:39:35.095Z,81.66
2022-12-06T20:42:05.287Z,82.46
2022-12-06T20:44:33.270Z,82.43
2022-12-06T20:47:01.284Z,81.96
2022-12-06T20:49:30.518Z,82.30
2022-12-06T20:51:59.601Z,81.85
2022-12-06T20:54:27.350Z,82.94
2022-12-06T20:56:55.230Z,82.55
2022-12-06T20:59:23.148Z,82.97
2022-12-06T21:01:51.123Z,82.94
2022-12-06T21:04:19.020Z,83.06
2022-12-06T21:06:48.232Z,83.84
2022-12-06T21:09:16.086Z,83.39
2022-12-06T21:11:43.905Z,85.21
2022-12-06T21:14:13.646Z,85.21
2022-12-06T21:16:42.586Z,84.77
2022-12-06T21:19:13.916Z,85.05
2022-12-06T21:21:44.733Z,86.06
2022-12-06T21:24:16.036Z,85.88
2022-12-06T21:26:43.964Z,86.74
2022-12-06T21:29:16.228Z,87.25
2022-12-06T21:31:44.127Z,85.66
2022-12-06T21:34:12.492Z,86.70
2022-12-06T21:36:40.510Z,86.67
2022-12-06T21:39:09.079Z,89.72
2022-12-06T21:41:38.869Z,88.19
2022-12-06T21:44:06.859Z,86.54
2022-12-06T21:46:34.777Z,88.37
2022-12-06T21:49:02.610Z,87.69
2022-12-06T21:51:32.429Z,88.17
2022-12-06T21:54:01.483Z,89.90
2022-12-06T21:56:32.818Z,89.82
2022-12-06T21:59:02.492Z,88.12
2022-12-06T22:01:31.635Z,90.11
2022-12-06T22:04:02.175Z,91.00
2022-12-06T22:06:31.420Z,90.29
2022-12-06T22:09:01.428Z,89.71
2022-12-06T22:11:30.119Z,91.34
2022-12-06T22:13:58.990Z,90.52
2022-12-06T22:16:29.060Z,90.05
2022-12-06T22:18:57.038Z,90.51
2022-12-06T22:21:26.963Z,92.65
2022-12-06T22:23:55.820Z,90.65
2022-12-06T22:26:24.320Z,90.88
2022-12-06T22:28:52.357Z,90.69
2022-12-06T22:31:22.413Z,90.22
2022-12-06T22:33:53.104Z,89.56
2022-12-06T22:36:22.539Z,90.11
2022-12-06T22:38:51.645Z,89.12
2022-12-06T22:41:20.156Z,89.95
2022-12-06T22:43:51.982Z,89.18
2022-12-06T22:46:20.392Z,89.96
2022-12-06T22:48:48.909Z,91.46
2022-12-06T22:51:19.936Z,91.38
2022-12-06T22:53:49.840Z,91.30
2022-12-06T22:56:17.561Z,91.24
2022-12-06T22:58:45.337Z,91.49
2022-12-06T23:01:16.647Z,92.08
2022-12-06T23:03:45.421Z,91.83
2022-12-06T23:06:13.933Z,91.62
2022-12-06T23:08:43.633Z,90.77
2022-12-06T23:11:13.887Z,91.69
2022-12-06T23:13:41.892Z,91.48
2022-12-06T23:16:12.645Z,91.94
2022-12-06T23:18:40.763Z,92.76
2022-12-06T23:21:11.435Z,92.08
2022-12-06T23:23:41.173Z,91.23
2022-12-06T23:26:12.185Z,91.32
2022-12-06T23:28:40.302Z,92.12
2022-12-06T23:31:10.849Z,91.32
2022-12-06T23:33:39.187Z,91.00
2022-12-06T23:36:09.328Z,92.88
2022-12-06T23:38:37.571Z,92.96
2022-12-06T23:41:06.852Z,93.42
2022-12-06T23:43:37.006Z,93.59
2022-12-06T23:46:07.704Z,93.76
2022-12-06T23:48:36.692Z,93.16
2022-12-06T23:51:07.169Z,91.08
2022-12-06T23:53:35.699Z,92.26
2022-12-06T23:56:07.043Z,92.46
2022-12-06T23:58:36.827Z,90.95
